Time;durP1;ratioP1;P1;durP2;ratioP2;P2;SDS_P1;SDS_P2;PMS_P1;PMS_P2;Temp;Humidity;BMP_temperature;BMP_pressure;BME280_temperature;BME280_humidity;BME280_pressure;Samples;Min_cycle;Max_cycle;Signal;HPM_P1;HPM_P2
2021/07/04 00:01:05;;;;;;;6.90;4.28;;;;;;;;;;4977090;28;20031;-79
2021/07/04 00:03:31;;;;;;;6.97;4.13;;;;;;;;;;4978759;28;20064;-79
2021/07/04 00:05:57;;;;;;;5.30;3.88;;;;;;;;;;4980416;28;20027;-79
2021/07/04 00:08:25;;;;;;;4.63;3.92;;;;;;;;;;4978194;28;20027;-79
2021/07/04 00:10:58;;;;;;;5.95;4.40;;;;;;;;;;4979967;28;20034;-78
2021/07/04 00:13:24;;;;;;;5.68;3.83;;;;;;;;;;4987519;28;20019;-79
2021/07/04 00:15:50;;;;;;;4.80;4.25;;;;;;;;;;4978581;28;20035;-79
2021/07/04 00:18:19;;;;;;;5.82;4.10;;;;;;;;;;4982051;28;20050;-79
2021/07/04 00:20:45;;;;;;;7.47;4.20;;;;;;;;;;4989891;28;20027;-78
2021/07/04 00:23:12;;;;;;;8.30;4.15;;;;;;;;;;4978342;28;20031;-79
2021/07/04 00:25:39;;;;;;;4.78;3.90;;;;;;;;;;4978606;28;20030;-77
2021/07/04 00:28:05;;;;;;;6.18;4.20;;;;;;;;;;4994140;28;20045;-80
2021/07/04 00:30:31;;;;;;;5.88;4.25;;;;;;;;;;4995515;28;20040;-80
2021/07/04 00:32:57;;;;;;;5.50;4.38;;;;;;;;;;4978185;28;20069;-80
2021/07/04 00:35:23;;;;;;;6.35;4.32;;;;;;;;;;4978174;28;20034;-80
2021/07/04 00:37:50;;;;;;;6.18;4.72;;;;;;;;;;4978012;28;20026;-80
2021/07/04 00:40:17;;;;;;;6.20;4.55;;;;;;;;;;4977258;28;20105;-80
2021/07/04 00:42:43;;;;;;;6.07;4.35;;;;;;;;;;4978334;28;20027;-79
2021/07/04 00:45:11;;;;;;;5.95;5.20;;;;;;;;;;4977234;28;20030;-80
2021/07/04 00:47:37;;;;;;;6.13;5.00;;;;;;;;;;4993518;28;20030;-79
2021/07/04 00:50:04;;;;;;;6.35;5.03;;;;;;;;;;4977295;28;20058;-80
2021/07/04 00:52:30;;;;;;;6.60;4.88;;;;;;;;;;4978477;28;20090;-79
2021/07/04 00:54:56;;;;;;;9.50;5.32;;;;;;;;;;4976145;28;20030;-80
2021/07/04 00:57:22;;;;;;;6.35;4.63;;;;;;;;;;4978770;28;20391;-79
2021/07/04 00:59:48;;;;;;;7.40;4.97;;;;;;;;;;4992297;28;20097;-79
2021/07/04 01:02:14;;;;;;;7.70;5.70;;;;;;;;;;4977405;28;20076;-80
2021/07/04 01:04:40;;;;;;;6.57;5.18;;;;;;;;;;4977491;28;20097;-79
2021/07/04 01:07:06;;;;;;;6.35;5.40;;;;;;;;;;4977943;28;20034;-80
2021/07/04 01:09:32;;;;;;;9.25;5.20;;;;;;;;;;4977928;28;20035;-77
2021/07/04 01:11:58;;;;;;;7.82;5.38;;;;;;;;;;4977375;28;20481;-78
2021/07/04 01:14:25;;;;;;;6.40;5.30;;;;;;;;;;4966467;28;20119;-79
2021/07/04 01:16:51;;;;;;;7.30;5.38;;;;;;;;;;4976794;28;20041;-78
2021/07/04 01:19:17;;;;;;;6.40;5.00;;;;;;;;;;4976635;28;20042;-79
2021/07/04 01:21:44;;;;;;;7.78;5.68;;;;;;;;;;4978221;28;20049;-78
2021/07/04 01:24:11;;;;;;;6.65;5.45;;;;;;;;;;4976749;28;20034;-78
2021/07/04 01:26:37;;;;;;;8.10;5.55;;;;;;;;;;4976190;28;20034;-77
2021/07/04 01:29:04;;;;;;;8.00;5.38;;;;;;;;;;4975717;28;20484;-77
2021/07/04 01:31:30;;;;;;;7.22;5.22;;;;;;;;;;4972893;28;20042;-76
2021/07/04 01:33:56;;;;;;;5.50;4.82;;;;;;;;;;4973597;28;20039;-76
2021/07/04 01:36:22;;;;;;;8.82;5.53;;;;;;;;;;4973386;28;20103;-76
2021/07/04 01:38:48;;;;;;;5.78;5.07;;;;;;;;;;4972011;28;20057;-76
2021/07/04 01:41:14;;;;;;;6.15;5.40;;;;;;;;;;4972162;28;20480;-76
2021/07/04 01:43:40;;;;;;;5.93;4.65;;;;;;;;;;4972515;28;20061;-77
2021/07/04 01:46:06;;;;;;;8.23;4.80;;;;;;;;;;4972509;28;20066;-76
2021/07/04 01:48:32;;;;;;;7.57;4.72;;;;;;;;;;4972251;28;20027;-76
2021/07/04 01:50:58;;;;;;;5.35;4.28;;;;;;;;;;4972109;28;20085;-76
2021/07/04 01:53:24;;;;;;;6.22;4.55;;;;;;;;;;4972065;28;20558;-76
2021/07/04 01:55:51;;;;;;;5.55;4.50;;;;;;;;;;4987338;28;20085;-76
2021/07/04 01:58:17;;;;;;;6.85;4.20;;;;;;;;;;4972596;28;20395;-76
2021/07/04 02:00:43;;;;;;;5.65;4.10;;;;;;;;;;4971643;28;20074;-76
2021/07/04 02:03:10;;;;;;;6.30;3.88;;;;;;;;;;4970407;28;20031;-76
2021/07/04 02:05:37;;;;;;;6.88;3.88;;;;;;;;;;4972554;28;20030;-76
2021/07/04 02:08:03;;;;;;;4.82;4.00;;;;;;;;;;4970548;28;20031;-76
2021/07/04 02:10:30;;;;;;;5.03;4.05;;;;;;;;;;4986735;28;20062;-76
2021/07/04 02:12:57;;;;;;;4.53;3.65;;;;;;;;;;4972197;28;20034;-76
2021/07/04 02:15:24;;;;;;;5.07;3.97;;;;;;;;;;4972277;28;20065;-76
2021/07/04 02:17:51;;;;;;;5.20;4.18;;;;;;;;;;4970642;28;20023;-76
2021/07/04 02:20:17;;;;;;;5.68;4.13;;;;;;;;;;4971514;28;20117;-76
2021/07/04 02:22:43;;;;;;;5.68;4.22;;;;;;;;;;4971923;28;20030;-76
2021/07/04 02:25:09;;;;;;;5.82;3.95;;;;;;;;;;4972396;28;20130;-77
2021/07/04 02:27:35;;;;;;;7.50;4.53;;;;;;;;;;4976192;28;20377;-77
2021/07/04 02:30:01;;;;;;;6.63;4.15;;;;;;;;;;4974227;28;20038;-76
2021/07/04 02:32:27;;;;;;;6.32;4.35;;;;;;;;;;4974413;28;20026;-76
2021/07/04 02:34:53;;;;;;;5.15;4.18;;;;;;;;;;4975590;28;20404;-76
2021/07/04 02:37:19;;;;;;;7.55;4.50;;;;;;;;;;4975543;28;20043;-77
2021/07/04 02:39:45;;;;;;;4.97;4.22;;;;;;;;;;4975138;28;20567;-77
2021/07/04 02:42:11;;;;;;;6.68;4.00;;;;;;;;;;4975955;28;20027;-76
2021/07/04 02:44:37;;;;;;;5.88;4.55;;;;;;;;;;4976182;28;20026;-76
2021/07/04 02:47:03;;;;;;;6.25;4.30;;;;;;;;;;4975536;28;20034;-76
2021/07/04 02:49:29;;;;;;;6.97;4.43;;;;;;;;;;4974872;28;20039;-77
2021/07/04 02:51:55;;;;;;;6.00;4.30;;;;;;;;;;4975404;28;20093;-76
2021/07/04 02:54:21;;;;;;;7.05;4.53;;;;;;;;;;4975316;28;20030;-77
2021/07/04 02:56:47;;;;;;;6.03;4.60;;;;;;;;;;4974170;28;20042;-76
2021/07/04 02:59:13;;;;;;;5.20;4.05;;;;;;;;;;4974609;28;20106;-76
2021/07/04 03:01:39;;;;;;;5.10;3.92;;;;;;;;;;4970600;28;20042;-76
2021/07/04 03:04:05;;;;;;;5.65;4.30;;;;;;;;;;4971100;28;20046;-76
2021/07/04 03:06:31;;;;;;;6.47;4.88;;;;;;;;;;4989772;28;20447;-76
2021/07/04 03:08:57;;;;;;;9.85;4.68;;;;;;;;;;4974500;28;21181;-76
2021/07/04 03:11:23;;;;;;;6.50;4.07;;;;;;;;;;4975202;28;20042;-76
2021/07/04 03:13:49;;;;;;;5.35;4.28;;;;;;;;;;4973487;28;20039;-76
2021/07/04 03:16:15;;;;;;;4.90;4.00;;;;;;;;;;4975138;28;20034;-76
2021/07/04 03:18:41;;;;;;;5.95;4.05;;;;;;;;;;4973482;28;20446;-76
2021/07/04 03:21:07;;;;;;;6.20;4.43;;;;;;;;;;4974417;28;20047;-76
2021/07/04 03:23:33;;;;;;;5.63;4.57;;;;;;;;;;4972996;28;20494;-76
2021/07/04 03:25:59;;;;;;;8.80;5.30;;;;;;;;;;4975259;28;20472;-76
2021/07/04 03:28:25;;;;;;;9.00;5.55;;;;;;;;;;4974513;28;20404;-76
2021/07/04 03:30:51;;;;;;;6.60;5.10;;;;;;;;;;4974031;28;20031;-76
2021/07/04 03:33:17;;;;;;;6.82;4.80;;;;;;;;;;4974247;28;20035;-76
2021/07/04 03:35:44;;;;;;;8.05;4.72;;;;;;;;;;4973236;28;20027;-77
2021/07/04 03:38:10;;;;;;;6.15;4.13;;;;;;;;;;4974494;28;20089;-76
2021/07/04 03:40:36;;;;;;;7.82;4.20;;;;;;;;;;4974990;28;20034;-77
2021/07/04 03:43:02;;;;;;;6.32;4.38;;;;;;;;;;4970095;28;20110;-76
2021/07/04 03:45:28;;;;;;;5.68;4.40;;;;;;;;;;4974452;28;20483;-77
2021/07/04 03:47:54;;;;;;;7.50;4.50;;;;;;;;;;4973493;28;20506;-76
2021/07/04 03:50:20;;;;;;;5.70;4.82;;;;;;;;;;4974116;28;20031;-76
2021/07/04 03:52:48;;;;;;;6.13;4.90;;;;;;;;;;4974048;28;20037;-77
2021/07/04 03:55:14;;;;;;;6.10;5.30;;;;;;;;;;4976817;28;20034;-76
2021/07/04 03:57:40;;;;;;;7.95;5.03;;;;;;;;;;4974415;28;20031;-77
2021/07/04 04:00:08;;;;;;;6.97;5.20;;;;;;;;;;4973924;28;20027;-77
2021/07/04 04:02:34;;;;;;;8.18;5.18;;;;;;;;;;4974031;28;20030;-77
2021/07/04 04:05:00;;;;;;;6.53;4.70;;;;;;;;;;4974043;28;20496;-77
2021/07/04 04:07:26;;;;;;;5.28;4.25;;;;;;;;;;4974090;28;20034;-76
2021/07/04 04:09:52;;;;;;;6.07;4.38;;;;;;;;;;4961781;28;20030;-77
2021/07/04 04:12:19;;;;;;;7.78;5.13;;;;;;;;;;4955447;28;20500;-77
2021/07/04 04:14:45;;;;;;;6.18;4.57;;;;;;;;;;4966488;28;20084;-77
2021/07/04 04:17:12;;;;;;;6.05;4.50;;;;;;;;;;4975612;28;20034;-77
2021/07/04 04:19:38;;;;;;;5.45;4.10;;;;;;;;;;4974375;28;20047;-77
2021/07/04 04:22:04;;;;;;;5.07;4.38;;;;;;;;;;4981151;28;20030;-77
2021/07/04 04:24:30;;;;;;;6.57;4.38;;;;;;;;;;4970214;28;20023;-77
2021/07/04 04:26:56;;;;;;;5.47;3.80;;;;;;;;;;4961099;29;20019;-77
2021/07/04 04:29:23;;;;;;;6.30;4.32;;;;;;;;;;4966576;28;20416;-77
2021/07/04 04:31:49;;;;;;;7.03;4.10;;;;;;;;;;4975687;28;20056;-77
2021/07/04 04:34:15;;;;;;;5.88;4.15;;;;;;;;;;4974384;28;20744;-76
2021/07/04 04:36:42;;;;;;;6.47;4.13;;;;;;;;;;4976322;28;20026;-77
2021/07/04 04:39:08;;;;;;;7.15;4.30;;;;;;;;;;4974758;28;20086;-77
2021/07/04 04:41:36;;;;;;;8.75;4.40;;;;;;;;;;4975457;28;20021;-77
2021/07/04 04:44:02;;;;;;;5.28;4.15;;;;;;;;;;4976177;28;20027;-79
2021/07/04 04:46:28;;;;;;;5.72;4.65;;;;;;;;;;4978376;28;20041;-80
2021/07/04 04:48:54;;;;;;;6.68;3.97;;;;;;;;;;4977841;28;20031;-78
2021/07/04 04:51:21;;;;;;;5.00;3.95;;;;;;;;;;4976217;28;20090;-79
2021/07/04 04:53:47;;;;;;;7.78;4.45;;;;;;;;;;4977424;28;20041;-79
2021/07/04 04:56:13;;;;;;;5.78;4.10;;;;;;;;;;4992453;28;20121;-80
2021/07/04 04:58:39;;;;;;;5.80;4.03;;;;;;;;;;4977588;28;20085;-80
2021/07/04 05:01:05;;;;;;;4.90;3.90;;;;;;;;;;4980881;28;20027;-79
2021/07/04 05:03:31;;;;;;;8.70;4.47;;;;;;;;;;4998803;28;20094;-79
2021/07/04 05:05:57;;;;;;;5.97;4.90;;;;;;;;;;4975649;28;20027;-81
2021/07/04 05:08:25;;;;;;;6.63;3.95;;;;;;;;;;4979360;28;20030;-81
2021/07/04 05:10:52;;;;;;;6.90;4.18;;;;;;;;;;4980216;28;20023;-80
2021/07/04 05:13:18;;;;;;;7.35;4.28;;;;;;;;;;4979163;28;20058;-79
2021/07/04 05:15:44;;;;;;;8.23;4.07;;;;;;;;;;4981263;28;20114;-79
2021/07/04 05:18:10;;;;;;;5.65;4.53;;;;;;;;;;4979902;28;20054;-79
2021/07/04 05:20:36;;;;;;;8.18;4.30;;;;;;;;;;4977783;28;20029;-78
2021/07/04 05:23:02;;;;;;;5.20;4.07;;;;;;;;;;4993328;28;20019;-79
2021/07/04 05:25:28;;;;;;;5.40;3.92;;;;;;;;;;4993492;28;20042;-78
2021/07/04 05:27:54;;;;;;;5.00;3.55;;;;;;;;;;4978001;28;20026;-78
2021/07/04 05:30:20;;;;;;;5.47;3.92;;;;;;;;;;4974326;28;20045;-77
2021/07/04 05:32:46;;;;;;;6.50;4.03;;;;;;;;;;4973150;28;20027;-78
2021/07/04 05:35:12;;;;;;;5.78;4.00;;;;;;;;;;4972993;28;20038;-78
2021/07/04 05:37:38;;;;;;;5.53;4.20;;;;;;;;;;4972407;28;20114;-77
2021/07/04 05:40:12;;;;;;;5.50;3.95;;;;;;;;;;4970991;28;20019;-78
2021/07/04 05:42:38;;;;;;;6.40;4.28;;;;;;;;;;4972904;28;20050;-78
2021/07/04 05:45:07;;;;;;;6.28;4.70;;;;;;;;;;4972972;28;20058;-78
2021/07/04 05:47:33;;;;;;;5.53;4.22;;;;;;;;;;4973488;28;20424;-78
2021/07/04 05:49:59;;;;;;;5.07;4.05;;;;;;;;;;4972807;28;20093;-77
2021/07/04 05:52:25;;;;;;;5.00;4.07;;;;;;;;;;4972841;28;20039;-76
2021/07/04 05:54:51;;;;;;;5.15;4.15;;;;;;;;;;4972150;28;20027;-75
2021/07/04 05:57:16;;;;;;;6.22;4.22;;;;;;;;;;4972987;28;20092;-76
2021/07/04 05:59:42;;;;;;;6.85;4.13;;;;;;;;;;4967091;28;20035;-77
2021/07/04 06:02:09;;;;;;;8.23;4.35;;;;;;;;;;4973402;28;20030;-76
2021/07/04 06:04:35;;;;;;;5.43;3.97;;;;;;;;;;4973071;28;20030;-76
2021/07/04 06:07:01;;;;;;;4.85;3.70;;;;;;;;;;4973010;28;20507;-78
2021/07/04 06:09:27;;;;;;;5.30;3.92;;;;;;;;;;4970583;28;20034;-75
2021/07/04 06:11:53;;;;;;;5.05;3.47;;;;;;;;;;4972565;28;20023;-77
2021/07/04 06:14:19;;;;;;;7.45;4.05;;;;;;;;;;4971833;28;20038;-76
2021/07/04 06:16:45;;;;;;;4.40;3.60;;;;;;;;;;4972466;28;20023;-77
2021/07/04 06:19:11;;;;;;;4.78;3.92;;;;;;;;;;4971395;28;20026;-79
2021/07/04 06:21:37;;;;;;;7.50;3.88;;;;;;;;;;4973078;28;20093;-78
2021/07/04 06:24:03;;;;;;;4.57;3.80;;;;;;;;;;4986775;28;20473;-77
2021/07/04 06:26:29;;;;;;;5.38;3.75;;;;;;;;;;4972284;28;20031;-77
2021/07/04 06:28:55;;;;;;;4.82;3.75;;;;;;;;;;4971703;28;20039;-75
2021/07/04 06:31:21;;;;;;;5.50;4.00;;;;;;;;;;4971892;28;20066;-77
2021/07/04 06:33:49;;;;;;;5.07;3.88;;;;;;;;;;4972729;28;20031;-79
2021/07/04 06:36:15;;;;;;;5.07;3.80;;;;;;;;;;4971085;28;20369;-76
2021/07/04 06:38:41;;;;;;;7.55;3.88;;;;;;;;;;4986688;28;20488;-77
2021/07/04 06:41:07;;;;;;;6.28;4.10;;;;;;;;;;4990644;28;20099;-78
2021/07/04 06:43:33;;;;;;;7.68;4.47;;;;;;;;;;4975779;28;20048;-77
2021/07/04 06:45:59;;;;;;;5.43;3.85;;;;;;;;;;4975591;28;20488;-79
2021/07/04 06:48:25;;;;;;;5.72;3.97;;;;;;;;;;4976173;28;20077;-79
2021/07/04 06:50:51;;;;;;;5.13;3.70;;;;;;;;;;4975481;28;20027;-78
2021/07/04 06:53:17;;;;;;;5.85;3.80;;;;;;;;;;4975852;28;20034;-77
2021/07/04 06:55:43;;;;;;;5.07;3.78;;;;;;;;;;4990991;23;20041;-76
2021/07/04 06:58:09;;;;;;;5.63;3.70;;;;;;;;;;5011988;28;20041;-76
2021/07/04 07:00:35;;;;;;;6.63;4.10;;;;;;;;;;5012157;28;20061;-76
2021/07/04 07:03:01;;;;;;;5.57;3.92;;;;;;;;;;4996062;28;20027;-74
2021/07/04 07:05:27;;;;;;;5.03;3.85;;;;;;;;;;4992988;28;20026;-78
2021/07/04 07:07:53;;;;;;;6.45;4.47;;;;;;;;;;4993718;28;20122;-76
2021/07/04 07:10:19;;;;;;;4.80;3.75;;;;;;;;;;4994841;28;20034;-77
2021/07/04 07:12:45;;;;;;;5.82;4.32;;;;;;;;;;4994414;28;20110;-76
2021/07/04 07:15:11;;;;;;;6.35;4.25;;;;;;;;;;4992721;28;20109;-76
2021/07/04 07:17:38;;;;;;;5.35;3.53;;;;;;;;;;4974935;28;20026;-77
2021/07/04 07:20:05;;;;;;;6.72;4.35;;;;;;;;;;4990858;28;20029;-75
2021/07/04 07:22:31;;;;;;;8.07;4.18;;;;;;;;;;4994064;28;20105;-78
2021/07/04 07:24:57;;;;;;;4.82;3.95;;;;;;;;;;4993680;28;20035;-75
2021/07/04 07:27:23;;;;;;;6.07;3.67;;;;;;;;;;4977065;28;20624;-76
2021/07/04 07:29:49;;;;;;;4.75;3.83;;;;;;;;;;4974487;28;20074;-76
2021/07/04 07:32:15;;;;;;;5.70;4.53;;;;;;;;;;4973482;28;20077;-76
2021/07/04 07:34:42;;;;;;;4.00;3.53;;;;;;;;;;4973501;28;20023;-75
2021/07/04 07:37:08;;;;;;;4.85;3.53;;;;;;;;;;4972887;28;20039;-75
2021/07/04 07:39:34;;;;;;;8.00;4.57;;;;;;;;;;4973841;28;20019;-74
2021/07/04 07:42:00;;;;;;;5.25;4.00;;;;;;;;;;4974289;28;20031;-74
2021/07/04 07:44:26;;;;;;;6.22;4.22;;;;;;;;;;4974621;28;20761;-73
2021/07/04 07:46:52;;;;;;;4.63;4.15;;;;;;;;;;4980155;28;20142;-73
2021/07/04 07:49:18;;;;;;;5.43;4.57;;;;;;;;;;4976176;28;20062;-73
2021/07/04 07:51:49;;;;;;;5.15;4.15;;;;;;;;;;4974438;28;20059;-72
2021/07/04 07:54:15;;;;;;;5.88;4.43;;;;;;;;;;4983393;28;20033;-74
2021/07/04 07:56:41;;;;;;;5.20;4.03;;;;;;;;;;4993134;28;20035;-75
2021/07/04 07:59:07;;;;;;;4.45;4.05;;;;;;;;;;4987402;28;20117;-74
2021/07/04 08:01:33;;;;;;;6.65;4.20;;;;;;;;;;4974356;28;20023;-73
2021/07/04 08:03:59;;;;;;;5.47;4.07;;;;;;;;;;4983575;28;20104;-73
2021/07/04 08:06:25;;;;;;;5.30;4.20;;;;;;;;;;4993279;28;20105;-75
2021/07/04 08:08:51;;;;;;;6.05;4.05;;;;;;;;;;4993104;28;20122;-73
2021/07/04 08:11:17;;;;;;;7.75;4.65;;;;;;;;;;4993072;28;20399;-73
2021/07/04 08:13:43;;;;;;;5.60;4.50;;;;;;;;;;4992296;28;20049;-73
2021/07/04 08:16:09;;;;;;;5.88;4.57;;;;;;;;;;4991070;28;20036;-73
2021/07/04 08:18:35;;;;;;;5.75;4.50;;;;;;;;;;4991204;28;20121;-75
2021/07/04 08:21:01;;;;;;;6.07;4.30;;;;;;;;;;4992461;28;20022;-73
2021/07/04 08:23:27;;;;;;;5.97;4.50;;;;;;;;;;4992034;28;20042;-73
2021/07/04 08:25:53;;;;;;;5.57;4.22;;;;;;;;;;4991978;28;20054;-74
2021/07/04 08:28:19;;;;;;;8.88;4.38;;;;;;;;;;4993189;28;20057;-73
2021/07/04 08:30:46;;;;;;;7.13;4.03;;;;;;;;;;4992185;28;20053;-74
2021/07/04 08:33:12;;;;;;;7.07;5.28;;;;;;;;;;4973380;28;20054;-74
2021/07/04 08:35:38;;;;;;;5.07;4.47;;;;;;;;;;4973502;28;20446;-73
2021/07/04 08:38:05;;;;;;;4.80;4.22;;;;;;;;;;4973710;28;20035;-73
2021/07/04 08:40:31;;;;;;;6.43;3.90;;;;;;;;;;4992533;28;20026;-74
2021/07/04 08:42:57;;;;;;;4.88;4.03;;;;;;;;;;4992975;28;20397;-73
2021/07/04 08:45:23;;;;;;;7.70;4.30;;;;;;;;;;4992256;28;20026;-73
2021/07/04 08:47:49;;;;;;;7.50;4.53;;;;;;;;;;4992684;28;20034;-74
2021/07/04 08:50:15;;;;;;;8.88;4.10;;;;;;;;;;4977087;28;20073;-74
2021/07/04 08:52:42;;;;;;;4.93;4.28;;;;;;;;;;4973152;28;20099;-74
2021/07/04 08:55:09;;;;;;;5.22;4.25;;;;;;;;;;4990199;28;20105;-73
2021/07/04 08:57:35;;;;;;;4.85;3.85;;;;;;;;;;4992572;28;20425;-74
2021/07/04 09:00:01;;;;;;;10.63;5.25;;;;;;;;;;4992629;28;20035;-74
2021/07/04 09:02:34;;;;;;;4.90;4.40;;;;;;;;;;4988369;28;20444;-74
2021/07/04 09:05:05;;;;;;;6.03;5.05;;;;;;;;;;4973646;28;20031;-74
2021/07/04 09:07:32;;;;;;;6.47;4.80;;;;;;;;;;4984131;28;20057;-73
2021/07/04 09:10:08;;;;;;;6.35;4.60;;;;;;;;;;5006733;28;20047;-73
2021/07/04 09:12:45;;;;;;;6.25;4.60;;;;;;;;;;4991217;28;20022;-73
2021/07/04 09:15:11;;;;;;;7.55;4.45;;;;;;;;;;4978024;28;20114;-74
2021/07/04 09:17:38;;;;;;;7.63;4.53;;;;;;;;;;4972576;28;20026;-74
2021/07/04 09:20:06;;;;;;;4.43;3.63;;;;;;;;;;4971180;28;20551;-74
2021/07/04 09:22:39;;;;;;;5.53;4.10;;;;;;;;;;4972884;28;20103;-74
2021/07/04 09:25:10;;;;;;;5.35;4.07;;;;;;;;;;4989075;28;20054;-74
2021/07/04 09:27:36;;;;;;;5.25;4.20;;;;;;;;;;4992291;28;20030;-74
2021/07/04 09:30:03;;;;;;;4.68;4.07;;;;;;;;;;4991494;28;20138;-74
2021/07/04 09:32:30;;;;;;;5.07;3.97;;;;;;;;;;4992166;28;20065;-73
2021/07/04 09:35:06;;;;;;;5.60;3.72;;;;;;;;;;4985184;28;20491;-75
2021/07/04 09:37:32;;;;;;;5.53;4.00;;;;;;;;;;4970069;28;20034;-73
2021/07/04 09:40:09;;;;;;;6.43;3.95;;;;;;;;;;4971991;28;20022;-74
2021/07/04 09:42:35;;;;;;;4.78;4.00;;;;;;;;;;4972704;28;20109;-73
2021/07/04 09:45:01;;;;;;;4.30;3.70;;;;;;;;;;4972732;28;20034;-74
2021/07/04 09:47:27;;;;;;;5.60;3.83;;;;;;;;;;4983060;28;20046;-74
2021/07/04 09:50:01;;;;;;;4.50;3.40;;;;;;;;;;4991242;28;20049;-73
2021/07/04 09:52:28;;;;;;;7.72;4.05;;;;;;;;;;4991872;28;20030;-74
2021/07/04 09:55:03;;;;;;;4.07;3.65;;;;;;;;;;4991478;28;20033;-75
2021/07/04 09:57:49;;;;;;;5.97;3.95;;;;;;;;;;4991788;28;20089;-75
2021/07/04 10:00:19;;;;;;;6.57;4.18;;;;;;;;;;4991079;28;20022;-76
2021/07/04 10:03:04;;;;;;;5.05;3.85;;;;;;;;;;4975988;28;20038;-74
2021/07/04 10:05:30;;;;;;;5.97;4.43;;;;;;;;;;4988579;28;20031;-74
2021/07/04 10:07:56;;;;;;;6.68;4.00;;;;;;;;;;4970999;28;20137;-74
2021/07/04 10:10:22;;;;;;;6.43;4.43;;;;;;;;;;4972115;28;20023;-74
2021/07/04 10:12:48;;;;;;;8.32;4.50;;;;;;;;;;4972434;28;20045;-73
2021/07/04 10:15:14;;;;;;;6.90;4.40;;;;;;;;;;4972115;28;20039;-73
2021/07/04 10:17:42;;;;;;;8.00;4.70;;;;;;;;;;4972334;28;20432;-74
2021/07/04 10:20:09;;;;;;;5.68;4.40;;;;;;;;;;4971818;28;20035;-73
2021/07/04 10:22:37;;;;;;;9.15;4.65;;;;;;;;;;4972467;28;20153;-75
2021/07/04 10:25:07;;;;;;;8.73;4.90;;;;;;;;;;4987771;28;20026;-74
2021/07/04 10:27:33;;;;;;;5.97;5.25;;;;;;;;;;4990498;28;20499;-74
2021/07/04 10:30:00;;;;;;;7.72;5.07;;;;;;;;;;4978363;28;20038;-74
2021/07/04 10:32:26;;;;;;;8.18;4.35;;;;;;;;;;4988407;28;20038;-73
2021/07/04 10:34:53;;;;;;;8.65;5.57;;;;;;;;;;4991344;28;20033;-75
2021/07/04 10:37:32;;;;;;;5.95;5.35;;;;;;;;;;4987347;28;20030;-76
2021/07/04 10:40:27;;;;;;;7.22;4.95;;;;;;;;;;4985562;28;20034;-74
2021/07/04 10:42:54;;;;;;;10.40;4.82;;;;;;;;;;4979568;28;20039;-76
2021/07/04 10:45:31;;;;;;;8.63;5.20;;;;;;;;;;4975035;28;20102;-75
2021/07/04 10:47:58;;;;;;;8.52;5.40;;;;;;;;;;4974018;28;20035;-75
2021/07/04 10:50:25;;;;;;;10.75;5.18;;;;;;;;;;4975073;28;20026;-76
2021/07/04 10:52:53;;;;;;;5.22;4.15;;;;;;;;;;4975570;28;20034;-74
2021/07/04 10:55:33;;;;;;;4.43;2.88;;;;;;;;;;4992985;28;20023;-75
2021/07/04 10:58:01;;;;;;;5.85;2.83;;;;;;;;;;4994752;28;20041;-74
2021/07/04 11:00:33;;;;;;;6.18;3.60;;;;;;;;;;4976624;28;20117;-75
2021/07/04 11:03:00;;;;;;;4.88;3.53;;;;;;;;;;4978091;28;20030;-76
2021/07/04 11:05:41;;;;;;;7.35;4.13;;;;;;;;;;4976623;28;20039;-75
2021/07/04 11:08:16;;;;;;;7.82;4.32;;;;;;;;;;4994069;28;20030;-76
2021/07/04 11:10:48;;;;;;;6.93;4.07;;;;;;;;;;4994142;28;20027;-75
2021/07/04 11:13:21;;;;;;;5.45;3.95;;;;;;;;;;4994617;28;20033;-77
2021/07/04 11:15:51;;;;;;;5.80;4.18;;;;;;;;;;4986286;28;20027;-77
2021/07/04 11:18:18;;;;;;;6.13;4.47;;;;;;;;;;4974610;28;20427;-76
2021/07/04 11:20:44;;;;;;;7.43;4.38;;;;;;;;;;4974480;28;20506;-75
2021/07/04 11:23:11;;;;;;;5.22;4.05;;;;;;;;;;4975496;28;20027;-76
2021/07/04 11:25:47;;;;;;;5.97;3.75;;;;;;;;;;4976373;28;20054;-76
2021/07/04 11:28:16;;;;;;;4.05;3.33;;;;;;;;;;4989913;28;20069;-77
2021/07/04 11:30:46;;;;;;;13.98;4.78;;;;;;;;;;4993022;28;20501;-75
2021/07/04 11:33:32;;;;;;;9.95;5.63;;;;;;;;;;4993958;28;20100;-76
2021/07/04 11:36:08;;;;;;;12.35;5.80;;;;;;;;;;4993983;28;20026;-73
2021/07/04 11:38:39;;;;;;;16.63;11.65;;;;;;;;;;4992188;28;20112;-74
2021/07/04 11:41:05;;;;;;;11.93;8.50;;;;;;;;;;4974084;28;20612;-75
2021/07/04 11:43:32;;;;;;;13.50;9.40;;;;;;;;;;4974699;28;20027;-77
2021/07/04 11:46:02;;;;;;;7.90;5.88;;;;;;;;;;4974574;28;20373;-76
2021/07/04 11:48:47;;;;;;;7.03;5.50;;;;;;;;;;4982429;28;20042;-77
2021/07/04 11:51:30;;;;;;;10.02;6.85;;;;;;;;;;4993316;28;20036;-75
2021/07/04 11:53:57;;;;;;;7.45;4.55;;;;;;;;;;4993260;28;20027;-74
2021/07/04 11:56:23;;;;;;;4.75;3.75;;;;;;;;;;4976716;28;20042;-76
2021/07/04 11:58:50;;;;;;;5.47;3.83;;;;;;;;;;4972537;28;20022;-75
2021/07/04 12:01:20;;;;;;;4.25;3.20;;;;;;;;;;4973797;28;20027;-76
2021/07/04 12:03:50;;;;;;;18.27;12.25;;;;;;;;;;4990055;28;20036;-78
2021/07/04 12:06:16;;;;;;;10.13;6.53;;;;;;;;;;4993342;28;20028;-74
2021/07/04 12:08:58;;;;;;;4.50;3.80;;;;;;;;;;4991982;28;20086;-76
2021/07/04 12:11:43;;;;;;;7.40;5.68;;;;;;;;;;4992640;28;20101;-77
2021/07/04 12:14:26;;;;;;;7.68;5.40;;;;;;;;;;4993123;28;20571;-76
2021/07/04 12:16:53;;;;;;;6.68;4.72;;;;;;;;;;4993064;28;20061;-74
2021/07/04 12:19:50;;;;;;;6.85;4.70;;;;;;;;;;4972206;28;20054;-76
2021/07/04 12:22:19;;;;;;;4.60;2.90;;;;;;;;;;4970587;28;20680;-75
2021/07/04 12:24:46;;;;;;;3.38;2.67;;;;;;;;;;4989330;28;20037;-76
2021/07/04 12:27:12;;;;;;;3.03;2.53;;;;;;;;;;4991595;28;20030;-76
2021/07/04 12:29:56;;;;;;;2.83;2.10;;;;;;;;;;4992845;28;20391;-76
2021/07/04 12:32:22;;;;;;;4.22;1.92;;;25.90;82.70;;;;;;4993301;28;20034;-76
2021/07/04 12:34:48;;;;;;;2.00;1.65;;;22.10;99.90;;;;;;4982143;28;20039;-76
2021/07/04 12:37:14;;;;;;;5.03;1.70;;;;;;;;;;4973580;28;20038;-76
2021/07/04 12:39:46;;;;;;;2.70;1.75;;;;;;;;;;4982758;28;20080;-77
2021/07/04 12:42:26;;;;;;;4.33;1.60;;;;;;;;;;4983616;28;20487;-77
2021/07/04 12:44:59;;;;;;;2.17;1.50;;;;;;;;;;4973689;28;20033;-76
2021/07/04 12:47:25;;;;;;;2.72;1.60;;;;;;;;;;4973733;28;20034;-77
2021/07/04 12:49:59;;;;;;;3.15;1.75;;;;;;;;;;4972723;28;20042;-77
2021/07/04 12:52:25;;;;;;;1.73;1.35;;;;;;;;;;4988900;28;20030;-76
2021/07/04 12:54:51;;;;;;;5.97;2.80;;;;;;;;;;4985766;28;20037;-76
2021/07/04 12:57:29;;;;;;;3.28;1.60;;;;;;;;;;4983642;28;20038;-76
2021/07/04 12:59:55;;;;;;;3.17;1.60;;;;;;;;;;4989888;28;20027;-76
2021/07/04 13:02:21;;;;;;;4.03;1.52;;;;;;;;;;4986979;28;20027;-76
2021/07/04 13:04:48;;;;;;;2.65;1.60;;;;;;;;;;4990313;28;20037;-76
2021/07/04 13:07:20;;;;;;;2.80;1.98;;;;;;;;;;4991841;28;20073;-77
2021/07/04 13:09:46;;;;;;;3.75;1.50;;;;;;;;;;4984191;28;20038;-77
2021/07/04 13:12:13;;;;;;;4.43;1.63;;;;;;;;;;4982691;28;20030;-77
2021/07/04 13:14:46;;;;;;;4.10;1.83;;;;;;;;;;4982513;28;20030;-76
2021/07/04 13:17:20;;;;;;;2.00;1.40;;;;;;;;;;4989272;28;20089;-75
2021/07/04 13:19:47;;;;;;;3.25;1.38;;;;;;;;;;4984519;28;20027;-76
2021/07/04 13:22:29;;;;;;;1.67;1.42;;;;;;;;;;4972727;28;20387;-76
2021/07/04 13:24:55;;;;;;;;;;;;;;;;;;4973226;28;20110;-75
2021/07/04 13:27:23;;;;;;;2.17;1.70;;;;;;;;;;4972413;28;19995;-76
2021/07/04 13:29:50;;;;;;;2.70;1.92;;;;;;;;;;4971805;28;20022;-77
2021/07/04 13:32:23;;;;;;;4.70;3.45;;;;;;;;;;4987672;28;20069;-76
2021/07/04 13:35:09;;;;;;;2.75;1.92;;;;;;;;;;4986931;28;20027;-77
2021/07/04 13:37:36;;;;;;;3.83;2.38;;;;;;;;;;4972126;28;20476;-76
2021/07/04 13:40:02;;;;;;;3.28;2.60;;;;;;;;;;4970043;28;20117;-76
2021/07/04 13:42:29;;;;;;;2.47;2.08;;;;;;;;;;4988124;28;20440;-75
2021/07/04 13:44:55;;;;;;;3.83;2.45;;;;;;;;;;4991240;28;20022;-76
2021/07/04 13:47:21;;;;;;;3.28;2.47;;;;;;;;;;4983086;28;20034;-76
2021/07/04 13:49:47;;;;;;;2.53;2.20;;;;;;;;;;4981754;28;20046;-77
2021/07/04 13:52:14;;;;;;;3.47;2.92;;;;;;;;;;4990208;28;20030;-76
2021/07/04 13:54:40;;;;;;;3.13;2.50;;;;;;;;;;4991409;28;20437;-75
2021/07/04 13:57:07;;;;;;;3.33;2.45;;;;;;;;;;4984146;28;20399;-76
2021/07/04 13:59:33;;;;;;;9.65;3.53;;;;;;;;;;4971998;28;20027;-75
2021/07/04 14:01:59;;;;;;;2.92;2.28;;;;;;;;;;4987309;28;20038;-76
2021/07/04 14:04:25;;;;;;;3.17;2.40;;;;;;;;;;4979057;28;20035;-75
2021/07/04 14:06:51;;;;;;;4.78;2.55;;;;;;;;;;4971995;28;20107;-75
2021/07/04 14:09:18;;;;;;;3.05;2.75;;;;;;;;;;4982357;28;20061;-75
2021/07/04 14:11:45;;;;;;;3.75;2.90;;;;;;;;;;4991665;28;20053;-76
2021/07/04 14:14:11;;;;;;;4.25;2.70;;;;;;;;;;4985161;28;20082;-75
2021/07/04 14:16:37;;;;;;;2.92;2.35;;;;;;;;;;4972062;28;20038;-76
2021/07/04 14:19:04;;;;;;;2.88;2.05;;;;;;;;;;4977648;28;20033;-76
2021/07/04 14:21:30;;;;;;;3.22;2.33;;;;;;;;;;4992254;28;20395;-76
2021/07/04 14:23:56;;;;;;;3.00;2.22;;;;;;;;;;4985848;28;20038;-78
2021/07/04 14:26:22;;;;;;;2.28;2.00;;;;;;;;;;4995054;23;20058;-76
2021/07/04 14:28:49;;;;;;;4.28;2.30;;;;;;;;;;4978625;28;20058;-76
2021/07/04 14:31:15;;;;;;;4.88;2.30;;;;;;;;;;4980711;28;20029;-77
2021/07/04 14:33:42;;;;;;;4.80;2.00;;;;;;;;;;4979803;28;20050;-78
2021/07/04 14:36:08;;;;;;;4.13;2.22;;;;;;;;;;4969031;28;20525;-78
2021/07/04 14:38:34;;;;;;;7.75;2.45;;;;;;;;;;4978063;28;20039;-75
2021/07/04 14:41:00;;;;;;;5.65;2.50;;;;;;;;;;4978871;28;20027;-78
2021/07/04 14:43:27;;;;;;;2.53;2.30;;;;;;;;;;4978657;28;20505;-77
2021/07/04 14:45:53;;;;;;;2.50;1.90;;;;;;;;;;4980169;28;20023;-78